Aérodrome :
LOGIN :

S'inscrire | Disclaimer

   EN    FR    IT 

 










Légende :    VFR   VFR Marginal   IFR   IFR Intensif   IFR Très Intensif
Visi : 
Plafond : 
>= 8 km
>= 3000ft
5 à 8 km
1000 à 3000 ft
1500m à 5 km
500 à 1000 ft
800 à 1500m
200 à 500 ft
< 800m
< 200 ft
Symboles :   Orages  Brouillard  Fortes neiges  Fortes précipitations  Vent > 20 kt
SIGMETs :   Divers  Orages  Givrage  Turbulence  Onde Orograph.  Cendres Volcan.







- Altitude de l'aérodrome : 218 ft
- Code IATA : LBG
- Voir les cartes d'approche


LFPB - Paris / Le Bourget

DERNIER METAR :
  • 241200Z AUTO VRB02KT 9999 SCT012 BKN190 BKN220 10/08 Q1012 NOSIG

METARs EXPIRÉS :
  • 241130Z AUTO 31003KT 250V340 9999 OVC012 10/07 Q1012 BECMG SCT020 BKN050
  • 241100Z AUTO 30003KT 260V340 9999 BKN010 OVC046 10/08 Q1012 BECMG SCT013 BKN020
  • 241030Z AUTO 33003KT 290V010 9999 BKN011 BKN050 BKN064 09/08 Q1012 BECMG SCT013 BKN020
  • 241000Z AUTO 33005KT 290V350 9999 FEW009 OVC052 09/07 Q1012 NOSIG
  • 240930Z AUTO 29004KT 250V330 9999 FEW010 OVC052 09/07 Q1012 NOSIG

TAF TAF LFPB
Valide du 24 à 12h jusqu'au 25 à 12h UTC


241100Z 2412/2512 26010KT 9999 BKN010
BECMG 2412/2414 SCT020 BKN050
PROB40
TEMPO 2501/2506 3000 -SHRA BKN010TCU
PROB30
TEMPO 2510/2512 SCT015CB
ATIS : +33 1 48 62 43 92
Pas de NOTAMs connus pour ce terrain.



MET'MAP, la Météo Aéronautique d'un coup d'oeil ! - Copyright ORBIFLY Décembre 2007 - Disclaimer

ORBIFLY MET'MAP TEAM :

Programmation & Développement : Alexandra Zaïnal
Conception & Développement : Baudouin d'Aumeries
Co-Programmation & Développement : Marc-Olivier Méhu
Soutien technique & logistique : Manuel Goepfert

Contact : metmap@orbifly.com




SOURCES & CREDITS :

   NOAA